Time;durP1;ratioP1;P1;durP2;ratioP2;P2;SDS_P1;SDS_P2;PMS_P1;PMS_P2;Temp;Humidity;BMP_temperature;BMP_pressure;BME280_temperature;BME280_humidity;BME280_pressure;Samples;Min_cycle;Max_cycle;Signal;HPM_P1;HPM_P2
2022/07/13 05:56:47;;;;;;;5.10;4.60;;;;;;;;;;6183028;23;20075;-86
2022/07/13 05:59:13;;;;;;;5.10;4.30;;;;;;;;;;6217494;23;20012;-89
2022/07/13 06:01:38;;;;;;;4.53;4.13;;;;;;;;;;6190738;23;20015;-88
2022/07/13 06:04:04;;;;;;;4.40;3.97;;;;;;;;;;6216961;23;20007;-88
2022/07/13 09:35:55;;;;;;;4.53;3.08;;;;;;;;;;6215145;23;20383;-94
2022/07/13 09:38:28;;;;;;;5.00;3.35;;;;;;;;;;6218107;23;20087;-93
2022/07/13 09:40:54;;;;;;;4.32;2.80;;;;;;;;;;6218124;23;20435;-92
2022/07/13 09:46:10;;;;;;;3.65;3.35;;;;;;;;;;6218194;23;20015;-91
2022/07/13 09:48:39;;;;;;;5.50;2.80;;;;;;;;;;6218057;23;20052;-89
2022/07/13 09:51:08;;;;;;;3.60;3.20;;;;;;;;;;6218151;23;20004;-87
2022/07/13 09:53:36;;;;;;;4.75;3.28;;;;;;;;;;6217552;23;20036;-89
2022/07/13 09:56:03;;;;;;;5.88;3.35;;;;;;;;;;6191525;23;20003;-92
2022/07/13 09:58:31;;;;;;;5.00;3.47;;;;;;;;;;6191502;23;20371;-91
2022/07/13 10:00:58;;;;;;;4.35;3.20;;;;;;;;;;6217813;23;20063;-91
2022/07/13 10:03:30;;;;;;;3.70;3.03;;;;;;;;;;6217660;23;20013;-85
2022/07/13 10:05:58;;;;;;;4.07;3.15;;;;;;;;;;6217630;23;19996;-91
2022/07/13 10:08:24;;;;;;;3.55;2.60;;;;;;;;;;6217615;23;20443;-84
2022/07/13 10:10:50;;;;;;;2.95;2.60;;;;;;;;;;6217546;23;20001;-88
2022/07/13 10:13:17;;;;;;;4.18;2.55;;;;;;;;;;6217584;23;20004;-85
2022/07/13 10:15:44;;;;;;;2.80;2.53;;;;;;;;;;6217671;23;20051;-90
2022/07/13 10:18:16;;;;;;;3.15;2.10;;;;;;;;;;6217482;23;20091;-90
2022/07/13 10:20:49;;;;;;;3.25;2.00;;;;;;;;;;6217049;23;20005;-89
2022/07/13 10:23:34;;;;;;;2.55;2.05;;;;;;;;;;6191023;23;20323;-87
2022/07/13 10:26:00;;;;;;;2.80;1.98;;;;;;;;;;6217908;23;20004;-91
2022/07/13 10:28:26;;;;;;;2.45;2.25;;;;;;;;;;6217471;23;20005;-89
2022/07/13 10:30:52;;;;;;;2.08;1.90;;;;;;;;;;6190491;23;20011;-86
2022/07/13 10:33:27;;;;;;;1.92;1.80;;;;;;;;;;6217122;23;20005;-85
2022/07/13 10:35:55;;;;;;;3.30;2.20;;;;;;;;;;6217090;23;20020;-85
2022/07/13 10:38:27;;;;;;;1.70;1.60;;;;;;;;;;6217185;23;20060;-85
2022/07/13 10:41:21;;;;;;;5.85;2.92;;;;;;;;;;6217010;23;20013;-86
2022/07/13 10:44:05;;;;;;;5.22;2.47;;;;;;;;;;6217034;23;20369;-86
2022/07/13 10:47:00;;;;;;;3.13;2.45;;;;;;;;;;6217490;23;20005;-89
2022/07/13 10:49:32;;;;;;;2.13;2.00;;;;;;;;;;6197565;23;20420;-87
2022/07/13 10:52:25;;;;;;;2.30;2.00;;;;;;;;;;6216748;23;20008;-90
2022/07/13 10:55:11;;;;;;;2.40;2.20;;;;;;;;;;6217265;23;20044;-87
2022/07/13 10:57:46;;;;;;;3.33;2.25;;;;;;;;;;6201120;23;20081;-87
2022/07/13 11:00:23;;;;;;;3.08;2.40;;;;;;;;;;6190410;23;20004;-89
2022/07/13 11:03:01;;;;;;;3.67;2.40;;;;;;;;;;6217047;23;20083;-86
2022/07/13 11:05:30;;;;;;;4.07;2.30;;;;;;;;;;6216768;23;20106;-94
2022/07/13 11:07:56;;;;;;;3.05;2.67;;;;;;;;;;6217168;23;20043;-90
2022/07/13 11:10:30;;;;;;;3.13;2.92;;;;;;;;;;6217010;23;20001;-86
2022/07/13 11:13:02;;;;;;;2.78;2.55;;;;;;;;;;6216645;23;20004;-90
2022/07/13 11:15:50;;;;;;;5.85;2.88;;;;;;;;;;6216995;23;20435;-87
2022/07/13 11:18:25;;;;;;;3.58;2.42;;;;;;;;;;6216624;23;19996;-87
2022/07/13 11:21:04;;;;;;;5.63;2.65;;;;;;;;;;6190280;23;20032;-86
2022/07/13 11:26:33;;;;;;;2.45;2.30;;;;;;;;;;6217124;23;20012;-88
2022/07/13 11:29:35;;;;;;;3.15;2.20;;;;;;;;;;6216826;23;20005;-88
2022/07/13 11:32:03;;;;;;;2.78;2.50;;;;;;;;;;6189665;23;20072;-84
2022/07/13 11:34:29;;;;;;;3.53;2.42;;;;;;;;;;6216617;23;20011;-84
2022/07/13 11:36:57;;;;;;;2.55;2.35;;;;;;;;;;6216442;23;20015;-86
2022/07/13 11:39:23;;;;;;;2.50;2.30;;;;;;;;;;6216961;23;20001;-86
2022/07/13 11:41:51;;;;;;;2.53;2.33;;;;;;;;;;6216122;23;20009;-86
2022/07/13 11:44:22;;;;;;;2.33;2.13;;;;;;;;;;6216373;23;20003;-84
2022/07/13 17:31:05;;;;;;;3.10;2.83;;;;;;;;;;6135647;22;2423649;-84
2022/07/13 17:33:30;;;;;;;3.70;2.85;;;;;;;;;;6190799;23;20075;-88
2022/07/13 17:35:56;;;;;;;3.42;2.83;;;;;;;;;;6216928;23;20004;-84
2022/07/13 17:38:21;;;;;;;3.00;2.65;;;;;;;;;;6204086;23;20088;-86
2022/07/13 17:40:47;;;;;;;2.90;2.70;;;;;;;;;;6187135;23;20070;-87
2022/07/13 17:43:12;;;;;;;3.15;2.60;;;;;;;;;;6187149;23;20035;-90
2022/07/13 17:45:38;;;;;;;4.03;2.80;;;;;;;;;;6187141;23;20005;-89
2022/07/13 17:48:04;;;;;;;3.15;2.53;;;;;;;;;;6186783;23;20009;-88
2022/07/13 17:50:30;;;;;;;2.70;2.50;;;;;;;;;;6160403;23;20005;-88
2022/07/13 17:52:55;;;;;;;2.95;2.65;;;;;;;;;;6186979;23;20001;-89
2022/07/13 17:55:21;;;;;;;3.00;2.67;;;;;;;;;;6160530;23;20481;-86
2022/07/13 17:57:46;;;;;;;3.97;2.95;;;;;;;;;;6160783;23;20379;-89
2022/07/13 18:00:13;;;;;;;3.05;2.75;;;;;;;;;;6160660;23;20084;-92
2022/07/13 18:02:38;;;;;;;4.18;2.85;;;;;;;;;;6160823;23;20424;-88
2022/07/13 18:05:04;;;;;;;3.15;2.90;;;;;;;;;;6188487;23;20008;-87
2022/07/13 18:07:30;;;;;;;3.45;2.70;;;;;;;;;;6187509;23;20001;-90
2022/07/13 18:09:56;;;;;;;3.15;2.88;;;;;;;;;;6161164;23;20451;-87
2022/07/13 18:12:21;;;;;;;3.10;2.80;;;;;;;;;;6187301;23;20001;-90
2022/07/13 18:14:47;;;;;;;2.97;2.78;;;;;;;;;;6187008;23;20012;-86
2022/07/13 18:17:13;;;;;;;3.97;3.00;;;;;;;;;;6160448;23;20088;-88
2022/07/13 18:19:39;;;;;;;4.63;2.90;;;;;;;;;;6186768;23;20001;-90
2022/07/13 18:22:04;;;;;;;3.70;3.03;;;;;;;;;;6187032;23;20011;-89
2022/07/13 18:24:30;;;;;;;3.10;2.80;;;;;;;;;;6186596;23;20079;-91
2022/07/13 18:26:55;;;;;;;2.90;2.70;;;;;;;;;;6186892;23;20001;-91
2022/07/13 18:29:21;;;;;;;3.20;3.00;;;;;;;;;;6186940;23;20009;-89
2022/07/13 18:36:56;;;;;;;3.80;3.50;;;;;;;;;;6132052;23;20500;-95
2022/07/13 18:39:21;;;;;;;4.80;3.20;;;;;;;;;;6133168;23;20041;-92
2022/07/13 18:41:47;;;;;;;3.35;3.10;;;;;;;;;;6128594;23;20417;-93
2022/07/13 18:44:13;;;;;;;3.40;3.10;;;;;;;;;;6133286;23;20029;-96
2022/07/13 18:46:59;;;;;;;2.97;2.78;;;;;;;;;;6134911;23;20010;-94
2022/07/13 18:49:53;;;;;;;3.20;2.90;;;;;;;;;;6190335;23;20024;-95
2022/07/13 18:53:17;;;;;;;3.33;3.03;;;;;;;;;;6181326;23;20021;-95
2022/07/13 18:58:18;;;;;;;3.33;3.03;;;;;;;;;;6155711;23;20009;-96
2022/07/13 19:00:43;;;;;;;4.53;2.88;;;;;;;;;;6171616;23;20065;-93
2022/07/13 19:03:11;;;;;;;5.63;3.40;;;;;;;;;;6166305;23;20016;-95
2022/07/13 19:05:37;;;;;;;3.10;2.80;;;;;;;;;;6164806;23;20005;-96
2022/07/13 19:08:03;;;;;;;3.13;2.85;;;;;;;;;;6154351;23;20007;-94
2022/07/13 19:10:30;;;;;;;4.07;3.15;;;;;;;;;;6132384;23;20019;-94
2022/07/13 19:12:58;;;;;;;3.08;2.78;;;;;;;;;;6132878;23;20006;-96
2022/07/13 19:15:24;;;;;;;3.33;2.60;;;;;;;;;;6143100;23;20080;-96
2022/07/13 19:17:49;;;;;;;3.58;3.10;;;;;;;;;;6139025;23;20040;-96
2022/07/13 19:20:15;;;;;;;3.03;2.83;;;;;;;;;;6131555;23;20052;-91
2022/07/13 19:22:40;;;;;;;3.45;2.92;;;;;;;;;;6132296;23;20012;-96
2022/07/13 19:27:51;;;;;;;3.35;3.05;;;;;;;;;;6158705;23;20020;-96
2022/07/13 19:30:18;;;;;;;3.38;3.08;;;;;;;;;;6133484;23;20010;-95
2022/07/13 19:32:43;;;;;;;3.40;3.03;;;;;;;;;;6132376;23;20440;-94
2022/07/13 19:35:09;;;;;;;2.90;2.70;;;;;;;;;;6131186;23;20084;-93
2022/07/13 19:37:34;;;;;;;3.30;3.00;;;;;;;;;;6131119;23;20005;-96
2022/07/13 19:40:01;;;;;;;3.55;3.30;;;;;;;;;;6133369;23;20010;-95
2022/07/13 19:42:26;;;;;;;3.30;3.08;;;;;;;;;;6136519;23;20033;-94
2022/07/13 19:44:52;;;;;;;4.65;3.25;;;;;;;;;;6164984;23;20002;-88
2022/07/13 19:47:17;;;;;;;3.20;3.00;;;;;;;;;;6166552;23;20005;-89
2022/07/13 19:49:43;;;;;;;3.45;3.15;;;;;;;;;;6151845;23;20006;-96
2022/07/13 19:52:09;;;;;;;5.43;3.50;;;;;;;;;;6156630;23;20021;-95
2022/07/13 19:54:34;;;;;;;3.90;3.50;;;;;;;;;;6152872;23;20032;-91
2022/07/13 19:57:00;;;;;;;3.88;3.33;;;;;;;;;;6150980;23;20037;-90
2022/07/13 19:59:27;;;;;;;3.20;2.90;;;;;;;;;;6150623;23;20018;-88
2022/07/13 20:01:53;;;;;;;5.47;3.35;;;;;;;;;;6174129;23;20021;-89
2022/07/13 20:04:19;;;;;;;3.53;3.20;;;;;;;;;;6175720;23;20002;-87
2022/07/13 20:06:45;;;;;;;3.55;3.10;;;;;;;;;;6151951;23;20009;-89
2022/07/13 20:09:11;;;;;;;4.20;3.58;;;;;;;;;;6151621;23;20033;-89
2022/07/13 20:11:37;;;;;;;5.43;3.50;;;;;;;;;;6152703;23;20013;-91
2022/07/13 20:14:02;;;;;;;5.47;4.50;;;;;;;;;;6179926;23;20025;-91
2022/07/13 20:16:28;;;;;;;3.92;3.60;;;;;;;;;;6154303;23;20013;-91
2022/07/13 20:18:54;;;;;;;3.40;3.20;;;;;;;;;;6158257;23;19989;-91
2022/07/13 20:21:19;;;;;;;5.40;3.80;;;;;;;;;;6158102;23;20009;-90
2022/07/13 20:23:45;;;;;;;3.80;3.50;;;;;;;;;;6158555;23;20001;-93
2022/07/13 20:26:10;;;;;;;3.78;3.47;;;;;;;;;;6183258;23;20028;-90
2022/07/13 20:28:36;;;;;;;3.40;3.10;;;;;;;;;;6156884;23;20001;-90
2022/07/13 20:31:03;;;;;;;5.45;3.13;;;;;;;;;;6182422;23;20013;-91
2022/07/13 20:33:29;;;;;;;3.63;3.00;;;;;;;;;;6181263;23;20016;-95
2022/07/13 20:35:56;;;;;;;3.58;3.28;;;;;;;;;;6157161;23;20005;-91
2022/07/13 20:38:22;;;;;;;3.97;3.45;;;;;;;;;;6156857;23;20036;-91
2022/07/13 20:40:48;;;;;;;3.28;3.05;;;;;;;;;;6158630;23;19997;-94
2022/07/13 20:43:14;;;;;;;3.28;2.92;;;;;;;;;;6159335;23;19998;-94
2022/07/13 20:45:40;;;;;;;3.50;3.20;;;;;;;;;;6183480;23;19986;-92
2022/07/13 20:48:09;;;;;;;5.60;3.00;;;;;;;;;;6158737;23;20005;-94
2022/07/13 20:50:35;;;;;;;2.95;2.75;;;;;;;;;;6159837;23;20001;-91
2022/07/13 20:53:01;;;;;;;3.35;3.05;;;;;;;;;;6182861;23;19993;-92
2022/07/13 20:55:27;;;;;;;3.40;3.00;;;;;;;;;;6156739;23;20000;-93
2022/07/13 20:57:53;;;;;;;3.53;3.22;;;;;;;;;;6179042;23;20005;-92
2022/07/13 21:00:19;;;;;;;3.40;3.10;;;;;;;;;;6145612;23;20014;-92
2022/07/13 21:02:44;;;;;;;3.75;3.40;;;;;;;;;;6145717;23;20078;-93
2022/07/13 21:05:10;;;;;;;3.75;3.03;;;;;;;;;;6142814;23;20333;-93
2022/07/13 21:07:36;;;;;;;3.63;2.85;;;;;;;;;;6121164;23;20010;-92
2022/07/13 21:10:03;;;;;;;4.53;3.70;;;;;;;;;;6150399;23;20058;-91
2022/07/13 21:12:30;;;;;;;4.75;3.38;;;;;;;;;;6146722;23;20010;-93
2022/07/13 21:14:56;;;;;;;3.95;3.58;;;;;;;;;;6147878;23;20112;-93
2022/07/13 21:17:21;;;;;;;3.10;2.80;;;;;;;;;;6143485;23;20426;-93
2022/07/13 21:19:46;;;;;;;5.22;3.50;;;;;;;;;;6164790;23;20013;-93
2022/07/13 21:22:13;;;;;;;3.83;3.53;;;;;;;;;;6138364;23;20022;-94
2022/07/13 21:24:38;;;;;;;3.50;3.20;;;;;;;;;;6136042;23;20009;-94
2022/07/13 21:27:04;;;;;;;4.22;2.83;;;;;;;;;;6137789;23;20005;-94
2022/07/13 21:29:29;;;;;;;3.03;2.83;;;;;;;;;;6161628;23;20366;-95
2022/07/13 21:31:55;;;;;;;3.08;2.88;;;;;;;;;;6137390;23;20017;-95
2022/07/13 21:34:20;;;;;;;3.72;3.50;;;;;;;;;;6135790;23;20303;-94
2022/07/13 21:36:46;;;;;;;3.35;3.05;;;;;;;;;;6158314;23;20037;-93
2022/07/13 21:39:11;;;;;;;3.60;3.30;;;;;;;;;;6129847;23;20053;-91
2022/07/13 21:41:37;;;;;;;4.18;3.47;;;;;;;;;;6135278;23;20061;-95
2022/07/13 21:44:04;;;;;;;3.58;3.30;;;;;;;;;;6146290;23;20006;-96
2022/07/13 21:46:29;;;;;;;3.72;3.42;;;;;;;;;;6169493;23;20001;-94
2022/07/13 21:48:55;;;;;;;3.33;3.13;;;;;;;;;;6130173;23;20385;-94
